Time;durP1;ratioP1;P1;durP2;ratioP2;P2;SDS_P1;SDS_P2;PMS_P1;PMS_P2;Temp;Humidity;BMP_temperature;BMP_pressure;BME280_temperature;BME280_humidity;BME280_pressure;Samples;Min_cycle;Max_cycle;Signal;HPM_P1;HPM_P2
2022/07/05 00:02:22;;;;;;;2.83;0.57;;;18.90;99.90;;;;;;4850597;29;20032;-76
2022/07/05 00:04:50;;;;;;;0.93;0.32;;;18.90;99.90;;;;;;4851126;29;20318;-76
2022/07/05 00:07:19;;;;;;;5.80;1.30;;;18.90;99.90;;;;;;4849705;29;20022;-76
2022/07/05 00:09:50;;;;;;;2.70;0.60;;;18.90;99.90;;;;;;4848903;29;20046;-76
2022/07/05 00:12:17;;;;;;;5.38;0.60;;;18.80;99.90;;;;;;4849548;29;20062;-76
2022/07/05 00:14:44;;;;;;;2.17;0.57;;;18.80;99.90;;;;;;4850676;29;20029;-76
2022/07/05 00:17:10;;;;;;;3.45;0.60;;;18.70;99.90;;;;;;4850483;29;20018;-76
2022/07/05 00:19:36;;;;;;;2.47;0.57;;;18.70;99.90;;;;;;4849374;29;20229;-76
2022/07/05 00:22:02;;;;;;;2.65;0.50;;;18.60;99.90;;;;;;4850091;29;20183;-76
2022/07/05 00:24:28;;;;;;;4.40;0.50;;;18.60;99.90;;;;;;4849630;29;20101;-76
2022/07/05 00:26:54;;;;;;;3.50;0.50;;;18.50;99.90;;;;;;4849729;29;20037;-76
2022/07/05 00:29:20;;;;;;;2.55;0.75;;;18.50;99.90;;;;;;4849344;29;20297;-76
2022/07/05 00:31:45;;;;;;;2.15;0.52;;;18.50;99.90;;;;;;4849525;29;20029;-76
2022/07/05 00:34:11;;;;;;;3.88;0.60;;;18.50;99.90;;;;;;4850575;29;20017;-76
2022/07/05 00:36:37;;;;;;;2.88;0.50;;;18.40;99.90;;;;;;4850370;29;20026;-76
2022/07/05 00:39:04;;;;;;;2.35;0.52;;;18.40;99.90;;;;;;4849116;29;20026;-76
2022/07/05 00:41:30;;;;;;;2.78;0.38;;;18.40;99.90;;;;;;4849412;29;20030;-76
2022/07/05 00:43:59;;;;;;;2.17;0.52;;;18.40;99.90;;;;;;4850536;29;20034;-76
2022/07/05 00:46:26;;;;;;;6.88;0.70;;;18.30;99.90;;;;;;4848452;29;20054;-76
2022/07/05 00:48:51;;;;;;;4.90;0.68;;;18.40;99.90;;;;;;4850426;29;20222;-76
2022/07/05 00:51:18;;;;;;;6.25;0.50;;;18.30;99.90;;;;;;4849753;29;20077;-76
2022/07/05 00:53:44;;;;;;;2.15;0.45;;;18.30;99.90;;;;;;4843573;29;20023;-76
2022/07/05 00:56:11;;;;;;;1.27;0.40;;;18.30;99.90;;;;;;4843645;29;20033;-76
2022/07/05 00:58:37;;;;;;;3.55;0.68;;;18.20;99.90;;;;;;4849994;29;20025;-76
2022/07/05 01:01:05;;;;;;;2.22;0.40;;;18.20;99.90;;;;;;4850207;29;20044;-76
2022/07/05 01:03:32;;;;;;;3.60;0.57;;;18.10;99.90;;;;;;4847243;29;20071;-76
2022/07/05 01:06:00;;;;;;;3.45;0.63;;;18.10;99.90;;;;;;4849744;29;20034;-76
2022/07/05 01:08:27;;;;;;;4.85;0.77;;;18.10;99.90;;;;;;4849255;29;20069;-76
2022/07/05 01:10:55;;;;;;;3.10;0.60;;;18.00;99.90;;;;;;4849658;29;20038;-76
2022/07/05 01:13:22;;;;;;;3.75;0.60;;;17.90;99.90;;;;;;4849491;29;20263;-76
2022/07/05 01:15:48;;;;;;;2.47;0.32;;;17.90;99.90;;;;;;4849272;29;20029;-76
2022/07/05 01:18:15;;;;;;;6.05;0.82;;;18.00;99.90;;;;;;4849626;29;20029;-76
2022/07/05 01:20:42;;;;;;;1.98;0.40;;;17.90;99.90;;;;;;4852301;29;20026;-76
2022/07/05 01:23:08;;;;;;;2.45;0.50;;;17.90;99.90;;;;;;4852346;29;20078;-76
2022/07/05 01:25:34;;;;;;;2.60;0.75;;;17.80;99.90;;;;;;4853687;29;20101;-76
2022/07/05 01:28:00;;;;;;;3.20;0.40;;;17.80;99.90;;;;;;4852662;29;20030;-76
2022/07/05 01:30:27;;;;;;;2.90;0.75;;;17.60;99.90;;;;;;4851251;29;20042;-76
2022/07/05 01:32:52;;;;;;;9.20;1.20;;;17.60;99.90;;;;;;4853595;29;20086;-76
2022/07/05 01:35:23;;;;;;;1.20;0.40;;;17.60;99.90;;;;;;4853900;29;20225;-76
2022/07/05 01:37:50;;;;;;;5.43;0.63;;;17.50;99.90;;;;;;4852998;29;20218;-76
2022/07/05 01:40:16;;;;;;;3.28;0.60;;;17.50;99.90;;;;;;4852520;29;20455;-76
2022/07/05 01:42:42;;;;;;;3.58;0.55;;;17.50;99.90;;;;;;4853177;29;20030;-76
2022/07/05 01:45:08;;;;;;;4.90;0.60;;;17.50;99.90;;;;;;4853882;29;20030;-76
2022/07/05 01:47:44;;;;;;;3.42;0.68;;;17.40;99.90;;;;;;4853355;29;20022;-76
2022/07/05 01:50:13;;;;;;;9.95;0.77;;;17.30;99.90;;;;;;4853390;29;20388;-76
2022/07/05 01:52:42;;;;;;;2.15;0.60;;;17.30;99.90;;;;;;4852457;29;20098;-76
2022/07/05 01:55:08;;;;;;;3.22;0.55;;;17.30;99.90;;;;;;4839032;29;20060;-76
2022/07/05 01:57:34;;;;;;;5.05;0.50;;;17.30;99.90;;;;;;4848143;29;20029;-76
2022/07/05 02:00:03;;;;;;;2.55;0.60;;;17.30;99.90;;;;;;4852513;29;20255;-76
2022/07/05 02:02:28;;;;;;;4.22;0.73;;;17.30;99.90;;;;;;4852516;29;20094;-76
2022/07/05 02:04:54;;;;;;;2.08;0.75;;;17.20;99.90;;;;;;4853018;29;20045;-76
2022/07/05 02:07:20;;;;;;;3.35;0.60;;;17.10;99.90;;;;;;4852812;29;20044;-76
2022/07/05 02:09:45;;;;;;;5.65;0.60;;;17.10;99.90;;;;;;4852804;29;20263;-76
2022/07/05 02:12:12;;;;;;;3.88;0.40;;;17.10;99.90;;;;;;4852521;29;20203;-76
2022/07/05 02:14:37;;;;;;;4.63;0.60;;;17.10;99.90;;;;;;4853015;29;20057;-76
2022/07/05 02:17:03;;;;;;;4.00;0.60;;;17.10;99.90;;;;;;4852041;29;20135;-76
2022/07/05 02:19:29;;;;;;;2.40;0.60;;;17.00;99.90;;;;;;4852710;29;20022;-76
2022/07/05 02:21:55;;;;;;;4.47;0.40;;;17.00;99.90;;;;;;4851919;29;20080;-76
2022/07/05 02:24:21;;;;;;;1.67;0.40;;;16.90;99.90;;;;;;4853012;29;20252;-76
2022/07/05 02:26:48;;;;;;;3.22;0.63;;;16.80;99.90;;;;;;4851992;29;20181;-76
2022/07/05 02:29:14;;;;;;;2.53;0.60;;;16.70;99.90;;;;;;4851215;29;20109;-76
2022/07/05 02:31:40;;;;;;;3.95;0.90;;;16.80;99.90;;;;;;4850070;29;20048;-76
2022/07/05 02:34:05;;;;;;;2.75;0.60;;;16.70;99.90;;;;;;4848971;29;20030;-76
2022/07/05 02:36:31;;;;;;;7.78;0.70;;;16.70;99.90;;;;;;4852601;29;20029;-76
2022/07/05 02:38:57;;;;;;;2.88;0.52;;;16.70;99.90;;;;;;4851987;29;20038;-76
2022/07/05 02:41:22;;;;;;;4.13;0.68;;;16.60;99.90;;;;;;4851854;29;20329;-76
2022/07/05 02:43:48;;;;;;;4.32;0.60;;;16.60;99.90;;;;;;4851871;29;20088;-76
2022/07/05 02:46:14;;;;;;;4.75;0.55;;;16.70;99.90;;;;;;4851440;29;20310;-76
2022/07/05 02:48:39;;;;;;;3.90;0.60;;;16.60;99.90;;;;;;4852360;29;20026;-76
2022/07/05 02:51:06;;;;;;;4.70;0.57;;;16.50;99.90;;;;;;4852154;29;20042;-76
2022/07/05 02:53:31;;;;;;;5.15;0.90;;;16.50;99.90;;;;;;4846615;29;20027;-76
2022/07/05 02:55:57;;;;;;;2.33;0.70;;;16.50;99.90;;;;;;4843718;29;20030;-76
2022/07/05 02:58:23;;;;;;;3.78;0.95;;;16.50;99.90;;;;;;4851785;29;20026;-76
2022/07/05 03:00:49;;;;;;;4.85;0.80;;;16.60;99.90;;;;;;4851887;29;20025;-76
2022/07/05 03:03:16;;;;;;;9.80;1.10;;;16.60;99.90;;;;;;4851768;29;20049;-76
2022/07/05 03:05:41;;;;;;;1.73;0.77;;;16.60;99.90;;;;;;4852074;29;20022;-76
2022/07/05 03:08:07;;;;;;;4.20;0.70;;;16.60;99.90;;;;;;4851069;29;20069;-76
2022/07/05 03:10:34;;;;;;;3.58;0.60;;;16.50;99.90;;;;;;4851918;29;20029;-76
2022/07/05 03:13:00;;;;;;;1.75;0.60;;;16.50;99.90;;;;;;4851175;29;20294;-76
2022/07/05 03:15:25;;;;;;;2.83;0.70;;;16.50;99.90;;;;;;4851535;29;20032;-76
2022/07/05 03:17:51;;;;;;;5.03;0.68;;;16.50;99.90;;;;;;4849864;29;20034;-76
2022/07/05 03:20:17;;;;;;;4.43;0.70;;;16.40;99.90;;;;;;4851372;29;20030;-76
2022/07/05 03:22:43;;;;;;;2.20;0.80;;;16.40;99.90;;;;;;4851579;29;20033;-76
2022/07/05 03:25:09;;;;;;;3.05;0.77;;;16.40;99.90;;;;;;4839233;29;20041;-76
2022/07/05 03:27:35;;;;;;;3.08;0.73;;;16.30;99.90;;;;;;4849810;29;20062;-76
2022/07/05 03:30:01;;;;;;;4.75;0.80;;;16.30;99.90;;;;;;4851730;29;20061;-76
2022/07/05 03:32:26;;;;;;;5.50;1.25;;;16.30;99.90;;;;;;4851512;29;20081;-76
2022/07/05 03:34:52;;;;;;;6.45;0.80;;;16.20;99.90;;;;;;4851367;29;20036;-76
2022/07/05 03:37:18;;;;;;;3.03;0.80;;;16.10;99.90;;;;;;4850973;29;20058;-76
2022/07/05 03:39:43;;;;;;;7.07;1.13;;;16.00;99.90;;;;;;4850255;29;20034;-76
2022/07/05 03:42:09;;;;;;;3.08;0.85;;;16.00;99.90;;;;;;4848191;29;20029;-76
2022/07/05 03:44:35;;;;;;;5.78;0.80;;;16.10;99.90;;;;;;4851285;29;20082;-76
2022/07/05 03:47:00;;;;;;;2.22;0.57;;;16.10;99.90;;;;;;4851111;29;20033;-76
2022/07/05 03:49:26;;;;;;;6.15;0.80;;;16.10;99.90;;;;;;4850924;29;20042;-76
2022/07/05 03:51:52;;;;;;;4.97;1.00;;;16.10;99.90;;;;;;4851888;29;20014;-76
2022/07/05 03:54:18;;;;;;;6.00;1.00;;;16.00;99.90;;;;;;4840892;29;20053;-76
2022/07/05 03:56:44;;;;;;;5.57;0.88;;;16.00;99.90;;;;;;4848581;29;20026;-76
2022/07/05 03:59:09;;;;;;;5.82;1.00;;;16.00;99.90;;;;;;4851665;29;20036;-76
2022/07/05 04:01:35;;;;;;;3.63;0.90;;;16.00;99.90;;;;;;4850910;29;20097;-76
2022/07/05 04:04:01;;;;;;;3.58;1.08;;;15.90;99.90;;;;;;4850492;29;20054;-76
2022/07/05 04:06:26;;;;;;;3.40;0.88;;;15.90;99.90;;;;;;4851087;29;20022;-76
2022/07/05 04:08:53;;;;;;;4.85;0.88;;;15.90;99.90;;;;;;4851311;29;20101;-76
2022/07/05 04:11:18;;;;;;;2.88;1.02;;;15.80;99.90;;;;;;4851416;29;20026;-76
2022/07/05 04:13:44;;;;;;;4.18;0.73;;;15.80;99.90;;;;;;4850698;29;20014;-76
2022/07/05 04:16:10;;;;;;;3.80;0.90;;;15.70;99.90;;;;;;4850412;29;20098;-76
2022/07/05 04:18:36;;;;;;;5.50;0.90;;;15.70;99.90;;;;;;4850650;29;20033;-76
2022/07/05 04:21:02;;;;;;;4.55;1.10;;;15.80;99.90;;;;;;4849487;29;20061;-76
2022/07/05 04:23:28;;;;;;;5.53;0.80;;;15.80;99.90;;;;;;4850512;29;20040;-76
2022/07/05 04:25:54;;;;;;;4.75;1.05;;;15.70;99.90;;;;;;4850771;29;20026;-76
2022/07/05 04:28:20;;;;;;;5.18;1.08;;;15.70;99.90;;;;;;4849751;29;20025;-76
2022/07/05 04:30:46;;;;;;;3.47;1.05;;;15.70;99.90;;;;;;4849948;29;20041;-76
2022/07/05 04:33:12;;;;;;;2.63;0.80;;;15.70;99.90;;;;;;4850056;29;20028;-76
2022/07/05 04:35:37;;;;;;;4.88;0.93;;;15.70;99.90;;;;;;4846575;29;20492;-76
2022/07/05 04:38:03;;;;;;;1.83;0.80;;;15.70;99.90;;;;;;4846697;29;20036;-76
2022/07/05 04:40:29;;;;;;;4.10;0.80;;;15.70;99.90;;;;;;4850435;29;20034;-76
2022/07/05 04:42:55;;;;;;;5.70;1.00;;;15.80;99.90;;;;;;4849731;29;20486;-76
2022/07/05 04:45:21;;;;;;;3.50;0.88;;;15.70;99.90;;;;;;4850143;29;20046;-76
2022/07/05 04:47:46;;;;;;;4.45;0.90;;;15.70;99.90;;;;;;4850129;29;20089;-76
2022/07/05 04:50:12;;;;;;;4.22;0.80;;;15.70;99.90;;;;;;4848026;29;20057;-76
2022/07/05 04:52:38;;;;;;;4.85;1.00;;;15.70;99.90;;;;;;4849752;29;20353;-76
2022/07/05 04:55:04;;;;;;;4.95;0.98;;;15.70;99.90;;;;;;4836539;29;20041;-76
2022/07/05 04:57:42;;;;;;;7.35;1.40;;;15.70;99.90;;;;;;4847963;29;20531;-76
2022/07/05 05:00:10;;;;;;;4.95;0.95;;;15.70;99.90;;;;;;4847901;29;20082;-76
2022/07/05 05:02:36;;;;;;;3.17;1.02;;;15.70;99.90;;;;;;4849147;29;20092;-77
2022/07/05 05:05:01;;;;;;;3.08;0.98;;;15.80;99.90;;;;;;4847771;29;20049;-76
2022/07/05 05:07:27;;;;;;;4.55;1.00;;;15.70;99.90;;;;;;4848120;29;20213;-77
2022/07/05 05:09:53;;;;;;;3.95;0.90;;;15.70;99.90;;;;;;4830057;29;20082;-77
2022/07/05 05:12:19;;;;;;;5.40;0.95;;;15.70;99.90;;;;;;4824044;29;20423;-77
2022/07/05 05:14:44;;;;;;;4.65;1.25;;;15.80;99.90;;;;;;4821199;29;20048;-77
2022/07/05 05:17:10;;;;;;;5.93;1.40;;;15.80;99.90;;;;;;4825777;29;20022;-77
2022/07/05 05:19:36;;;;;;;6.97;1.00;;;15.80;99.90;;;;;;4824393;29;20054;-77
2022/07/05 05:22:01;;;;;;;7.30;1.17;;;15.90;99.90;;;;;;4821879;29;20073;-77
2022/07/05 05:24:27;;;;;;;5.47;1.20;;;15.90;99.90;;;;;;4827462;29;20022;-77
2022/07/05 05:26:53;;;;;;;4.13;1.20;;;16.00;99.90;;;;;;4824198;29;20562;-77
2022/07/05 05:29:20;;;;;;;6.10;1.20;;;16.00;99.90;;;;;;4823379;29;20030;-77
2022/07/05 05:31:46;;;;;;;7.25;1.17;;;16.00;99.90;;;;;;4845478;29;20092;-77
2022/07/05 05:34:12;;;;;;;5.70;0.98;;;16.00;99.90;;;;;;4850154;29;20053;-76
2022/07/05 05:36:38;;;;;;;5.90;1.17;;;16.00;99.90;;;;;;4848959;29;20574;-77
2022/07/05 05:39:03;;;;;;;4.55;1.15;;;16.10;99.90;;;;;;4848137;29;20049;-77
2022/07/05 05:41:29;;;;;;;4.40;1.42;;;16.10;99.90;;;;;;4848401;29;20093;-77
2022/07/05 05:43:55;;;;;;;4.47;1.08;;;16.10;99.90;;;;;;4849321;29;20192;-77
2022/07/05 05:46:20;;;;;;;4.03;1.30;;;16.10;99.90;;;;;;4848642;29;20326;-77
2022/07/05 05:48:46;;;;;;;3.10;1.00;;;16.20;99.90;;;;;;4849415;29;20038;-77
2022/07/05 05:51:12;;;;;;;7.22;1.20;;;16.30;99.90;;;;;;4848383;29;20503;-76
2022/07/05 05:53:37;;;;;;;4.40;1.33;;;16.30;99.90;;;;;;4843351;29;20417;-77
2022/07/05 05:56:03;;;;;;;8.70;1.30;;;16.30;99.90;;;;;;4840598;29;20273;-76
2022/07/05 05:58:29;;;;;;;5.18;1.20;;;16.40;99.90;;;;;;4848667;29;20056;-76
2022/07/05 06:00:55;;;;;;;4.65;0.95;;;16.40;99.90;;;;;;4848538;29;20423;-76
2022/07/05 06:03:26;;;;;;;2.90;0.93;;;16.50;99.90;;;;;;4836130;29;20099;-76
2022/07/05 06:05:51;;;;;;;3.92;1.00;;;16.50;99.90;;;;;;4850325;29;20038;-76
2022/07/05 06:08:18;;;;;;;5.57;1.10;;;16.60;99.90;;;;;;4850026;29;20026;-76
2022/07/05 06:10:44;;;;;;;5.93;1.55;;;16.70;99.90;;;;;;4841805;29;20026;-77
2022/07/05 06:13:11;;;;;;;6.65;1.55;;;16.60;99.90;;;;;;4841782;29;20026;-77
2022/07/05 06:15:38;;;;;;;4.35;0.98;;;16.70;99.90;;;;;;4841949;29;20480;-77
2022/07/05 06:18:04;;;;;;;5.53;1.50;;;16.70;99.90;;;;;;4841846;29;20033;-77
2022/07/05 06:20:34;;;;;;;7.30;1.33;;;16.80;99.90;;;;;;4841803;29;20030;-77
2022/07/05 06:23:01;;;;;;;4.80;1.23;;;16.90;99.90;;;;;;4842150;29;20033;-77
2022/07/05 06:25:28;;;;;;;3.88;0.90;;;17.00;99.90;;;;;;4841749;29;20026;-77
2022/07/05 06:27:56;;;;;;;6.50;1.30;;;17.00;99.90;;;;;;4841872;29;20546;-77
2022/07/05 06:30:25;;;;;;;5.50;1.00;;;17.00;99.90;;;;;;4840130;29;20046;-77
2022/07/05 06:32:51;;;;;;;5.68;1.30;;;17.00;99.90;;;;;;4840198;29;20040;-77
2022/07/05 06:35:17;;;;;;;3.00;0.98;;;17.10;99.90;;;;;;4839972;29;20033;-77
2022/07/05 06:37:47;;;;;;;4.40;0.80;;;17.20;99.90;;;;;;4839746;29;20022;-77
2022/07/05 06:40:20;;;;;;;6.45;1.55;;;17.20;99.90;;;;;;4839880;29;20479;-77
2022/07/05 06:42:46;;;;;;;4.90;1.00;;;17.20;99.90;;;;;;4840472;29;20061;-77
2022/07/05 06:45:12;;;;;;;4.55;1.00;;;17.30;99.90;;;;;;4841674;29;20517;-78
2022/07/05 06:47:38;;;;;;;4.03;1.08;;;17.30;99.90;;;;;;4841589;29;20327;-77
2022/07/05 06:50:05;;;;;;;3.03;0.90;;;17.40;99.90;;;;;;4841306;29;20479;-77
2022/07/05 06:52:32;;;;;;;2.95;0.77;;;17.40;99.90;;;;;;4841241;29;20041;-77
2022/07/05 06:54:59;;;;;;;3.30;0.85;;;17.40;99.90;;;;;;4828177;29;20034;-77
2022/07/05 06:57:25;;;;;;;3.60;0.98;;;17.50;99.90;;;;;;4841296;29;20068;-77
2022/07/05 06:59:51;;;;;;;3.63;0.90;;;17.70;99.90;;;;;;4841066;29;20018;-77
2022/07/05 07:02:18;;;;;;;3.67;1.05;;;17.70;99.90;;;;;;4841068;29;20078;-77
2022/07/05 07:04:44;;;;;;;4.65;1.20;;;17.90;99.90;;;;;;4841245;29;20128;-77
2022/07/05 07:09:58;;;;;;;7.50;1.98;;;18.00;99.90;;;;;;4841054;29;20074;-77
2022/07/05 07:12:24;;;;;;;4.32;0.93;;;18.10;99.90;;;;;;4841368;29;20531;-77
2022/07/05 07:14:49;;;;;;;5.82;1.58;;;18.20;99.90;;;;;;4840906;29;20112;-77
2022/07/05 07:17:15;;;;;;;6.78;1.40;;;18.30;99.90;;;;;;4839798;29;20026;-77
2022/07/05 07:19:41;;;;;;;4.72;1.00;;;18.40;99.90;;;;;;4840806;29;20076;-77
2022/07/05 07:22:06;;;;;;;1.67;0.80;;;18.40;99.90;;;;;;4839572;29;20026;-77
2022/07/05 07:24:32;;;;;;;6.30;0.93;;;18.50;99.90;;;;;;4841032;29;20037;-77
2022/07/05 07:27:04;;;;;;;4.88;0.90;;;18.60;99.90;;;;;;4840743;29;20028;-77
2022/07/05 07:29:31;;;;;;;5.53;1.05;;;18.70;99.90;;;;;;4840720;29;20433;-77
2022/07/05 07:31:58;;;;;;;4.82;1.08;;;18.80;99.90;;;;;;4840469;29;20045;-77
2022/07/05 07:34:24;;;;;;;1.90;0.85;;;18.90;99.90;;;;;;4840554;29;20058;-77
2022/07/05 07:36:50;;;;;;;6.07;0.93;;;19.10;99.90;;;;;;4840465;29;20492;-77
2022/07/05 07:39:16;;;;;;;7.97;1.02;;;19.20;99.90;;;;;;4840391;29;20041;-77
2022/07/05 07:41:42;;;;;;;3.88;0.85;;;19.30;99.90;;;;;;4840620;29;20103;-77
2022/07/05 07:44:08;;;;;;;3.42;0.60;;;19.40;99.90;;;;;;4840464;29;20186;-77
2022/07/05 07:46:34;;;;;;;2.75;0.70;;;19.50;99.90;;;;;;4840289;29;20076;-77
2022/07/05 07:48:59;;;;;;;3.28;0.88;;;19.50;99.90;;;;;;4840264;29;20026;-77
2022/07/05 07:51:27;;;;;;;5.70;1.10;;;19.60;99.90;;;;;;4840379;29;20056;-77
2022/07/05 07:53:52;;;;;;;5.72;0.90;;;19.70;99.90;;;;;;4833135;29;20022;-77
2022/07/05 07:56:18;;;;;;;3.20;1.00;;;19.70;99.90;;;;;;4834677;29;20038;-77
2022/07/05 07:58:44;;;;;;;3.08;1.08;;;19.80;99.90;;;;;;4840009;29;20105;-77
2022/07/05 08:01:13;;;;;;;3.05;1.05;;;19.90;99.90;;;;;;4839955;29;20158;-77
2022/07/05 08:03:43;;;;;;;2.25;0.90;;;20.00;99.90;;;;;;4839813;29;20046;-77
2022/07/05 08:06:11;;;;;;;6.20;1.00;;;20.10;99.90;;;;;;4840210;29;20118;-77
2022/07/05 08:08:38;;;;;;;2.25;0.70;;;20.10;99.90;;;;;;4839855;29;20685;-77
2022/07/05 08:11:04;;;;;;;6.25;0.75;;;20.20;99.90;;;;;;4839896;29;20034;-77
2022/07/05 08:13:31;;;;;;;3.28;1.00;;;20.20;99.90;;;;;;4839762;29;20029;-77
2022/07/05 08:15:58;;;;;;;3.85;0.85;;;20.20;99.90;;;;;;4839681;29;20086;-77
2022/07/05 08:23:52;;;;;;;3.88;1.42;;;20.50;99.90;;;;;;4839914;29;20098;-77
2022/07/05 08:26:18;;;;;;;3.03;0.77;;;20.50;99.90;;;;;;4839842;29;20095;-77
2022/07/05 08:28:43;;;;;;;8.75;1.58;;;20.70;99.90;;;;;;4839504;29;20026;-77
2022/07/05 08:31:09;;;;;;;2.90;0.90;;;20.80;99.90;;;;;;4839555;29;20033;-77
2022/07/05 08:33:36;;;;;;;3.72;1.00;;;20.90;99.90;;;;;;4839636;29;20447;-77
2022/07/05 08:36:02;;;;;;;2.30;0.80;;;21.00;99.90;;;;;;4839273;29;20026;-77
2022/07/05 08:38:28;;;;;;;3.20;0.82;;;21.20;99.90;;;;;;4839385;29;20399;-77
2022/07/05 08:40:56;;;;;;;3.42;0.85;;;21.30;99.90;;;;;;4839169;29;20030;-77
2022/07/05 08:43:27;;;;;;;5.53;1.10;;;21.30;99.90;;;;;;4839473;29;20514;-77
2022/07/05 08:45:54;;;;;;;4.97;1.27;;;21.40;99.90;;;;;;4839235;29;20030;-77
2022/07/05 08:48:21;;;;;;;2.88;0.70;;;21.50;99.90;;;;;;4832197;29;20113;-77
2022/07/05 08:50:50;;;;;;;3.63;0.90;;;21.50;99.90;;;;;;4834045;29;20061;-77
2022/07/05 08:53:18;;;;;;;4.72;0.95;;;21.60;99.90;;;;;;4836597;29;20034;-77
2022/07/05 08:55:45;;;;;;;3.70;0.88;;;21.60;99.90;;;;;;4829582;29;20037;-77
2022/07/05 08:58:11;;;;;;;6.15;1.15;;;21.70;99.90;;;;;;4839102;29;20033;-77
2022/07/05 09:00:38;;;;;;;3.58;1.20;;;21.70;99.90;;;;;;4839148;29;20404;-77
2022/07/05 09:03:05;;;;;;;5.45;0.90;;;21.70;99.90;;;;;;4839164;29;20098;-77
2022/07/05 09:05:42;;;;;;;5.10;0.82;;;21.80;99.90;;;;;;4839366;29;20421;-77
2022/07/05 09:08:09;;;;;;;3.28;1.02;;;21.80;99.90;;;;;;4839194;29;20082;-77
2022/07/05 09:10:37;;;;;;;5.68;0.85;;;22.00;99.90;;;;;;4838976;29;20034;-77
2022/07/05 09:13:03;;;;;;;2.50;0.93;;;22.00;99.90;;;;;;4839416;29;20045;-77
2022/07/05 09:15:29;;;;;;;5.72;1.40;;;22.00;99.90;;;;;;4839095;29;20492;-77
2022/07/05 09:17:54;;;;;;;3.28;0.90;;;22.10;99.90;;;;;;4838861;29;20362;-77
2022/07/05 09:20:20;;;;;;;3.30;0.73;;;22.20;99.90;;;;;;4838853;29;20030;-77
2022/07/05 09:22:49;;;;;;;7.55;1.30;;;22.20;99.90;;;;;;4839029;29;20085;-77
2022/07/05 09:25:20;;;;;;;4.15;0.90;;;22.20;99.90;;;;;;4838949;29;20026;-77
2022/07/05 09:27:51;;;;;;;4.45;0.90;;;22.40;99.90;;;;;;4839247;29;20040;-77
2022/07/05 09:30:28;;;;;;;7.45;1.10;;;22.40;99.90;;;;;;4839059;29;20038;-77
2022/07/05 09:33:02;;;;;;;2.80;1.00;;;22.60;99.90;;;;;;4838824;29;20388;-77
2022/07/05 09:35:28;;;;;;;4.40;0.80;;;22.60;99.90;;;;;;4839152;29;20032;-77
2022/07/05 09:37:54;;;;;;;4.90;1.00;;;22.70;99.90;;;;;;4839182;29;20239;-77
2022/07/05 09:40:20;;;;;;;3.03;1.17;;;22.80;99.90;;;;;;4839977;29;20631;-77
2022/07/05 09:42:46;;;;;;;5.40;0.98;;;22.90;99.90;;;;;;4842362;29;20394;-77
2022/07/05 09:45:12;;;;;;;6.47;0.80;;;23.00;99.90;;;;;;4842354;29;20041;-77
2022/07/05 09:47:37;;;;;;;4.75;0.90;;;23.20;99.90;;;;;;4842178;29;20420;-77
2022/07/05 09:50:04;;;;;;;10.00;1.13;;;23.30;99.90;;;;;;4842549;29;20086;-77
2022/07/05 09:52:31;;;;;;;2.97;0.90;;;23.50;99.90;;;;;;4842281;29;20077;-77
2022/07/05 09:55:16;;;;;;;5.97;0.85;;;23.50;99.90;;;;;;4829367;29;20034;-77
2022/07/05 09:57:43;;;;;;;1.98;0.70;;;23.40;99.90;;;;;;4842204;29;20078;-77
2022/07/05 10:00:19;;;;;;;3.72;1.00;;;23.50;99.90;;;;;;4842088;29;20488;-77
2022/07/05 10:02:50;;;;;;;6.78;0.90;;;23.60;99.80;;;;;;4841898;29;20715;-77
2022/07/05 10:05:18;;;;;;;5.82;1.13;;;23.70;99.90;;;;;;4841966;29;20024;-77
2022/07/05 10:07:48;;;;;;;7.22;1.20;;;23.80;99.90;;;;;;4842091;29;20531;-77
2022/07/05 10:10:15;;;;;;;4.80;0.88;;;23.80;99.90;;;;;;4841838;29;20034;-77
2022/07/05 10:12:46;;;;;;;3.45;0.90;;;23.70;99.90;;;;;;4842275;29;20022;-77
2022/07/05 10:15:14;;;;;;;5.18;1.00;;;23.70;99.90;;;;;;4842010;29;20034;-77
2022/07/05 10:17:46;;;;;;;3.53;1.08;;;23.80;99.90;;;;;;4842347;29;20030;-77
2022/07/05 10:20:18;;;;;;;3.80;0.80;;;23.80;99.90;;;;;;4841662;29;20026;-77
2022/07/05 10:22:44;;;;;;;2.63;0.70;;;23.80;99.90;;;;;;4840490;29;20487;-78
2022/07/05 10:25:10;;;;;;;3.10;0.90;;;23.80;99.70;;;;;;4841669;29;20030;-77
2022/07/05 10:27:37;;;;;;;3.28;0.80;;;23.90;99.90;;;;;;4841824;29;20037;-79
2022/07/05 10:30:04;;;;;;;3.63;0.75;;;24.00;99.20;;;;;;4841675;29;20506;-79
2022/07/05 10:32:30;;;;;;;4.88;0.82;;;24.00;98.90;;;;;;4840180;29;20054;-79
2022/07/05 10:34:58;;;;;;;4.65;0.77;;;24.10;98.80;;;;;;4840359;29;20030;-79
2022/07/05 10:37:29;;;;;;;3.15;0.60;;;24.10;98.40;;;;;;4841482;29;20061;-79
2022/07/05 10:39:59;;;;;;;4.22;0.88;;;24.20;99.20;;;;;;4841455;29;20030;-79
2022/07/05 10:42:29;;;;;;;5.18;0.90;;;24.40;98.30;;;;;;4841257;29;20041;-79
2022/07/05 10:44:55;;;;;;;2.53;0.80;;;24.40;97.10;;;;;;4841440;29;20088;-79
2022/07/05 10:47:21;;;;;;;7.32;0.60;;;24.40;97.50;;;;;;4841173;29;20553;-79
2022/07/05 10:50:05;;;;;;;2.72;0.73;;;24.50;97.50;;;;;;4841400;29;20038;-79
2022/07/05 10:52:31;;;;;;;2.83;0.90;;;24.50;97.10;;;;;;4840303;29;20114;-79
2022/07/05 10:55:17;;;;;;;3.20;1.42;;;24.60;96.10;;;;;;4828434;29;20033;-79
2022/07/05 10:57:43;;;;;;;3.08;1.00;;;24.60;95.70;;;;;;4841027;29;20197;-79
2022/07/05 11:00:10;;;;;;;4.53;1.10;;;24.70;95.50;;;;;;4840966;29;20129;-79
2022/07/05 11:02:37;;;;;;;3.10;0.68;;;24.80;95.90;;;;;;4840836;29;20211;-79
2022/07/05 11:05:03;;;;;;;8.18;0.95;;;24.90;95.50;;;;;;4841053;29;20527;-79
2022/07/05 11:07:56;;;;;;;5.43;0.80;;;24.90;95.30;;;;;;4841491;29;20057;-78
2022/07/05 11:10:22;;;;;;;3.63;0.70;;;25.10;94.50;;;;;;4841023;29;20038;-79
2022/07/05 11:12:48;;;;;;;5.10;0.68;;;25.30;94.60;;;;;;4841149;29;20340;-79
2022/07/05 11:15:14;;;;;;;2.88;0.85;;;25.40;93.90;;;;;;4840691;29;20408;-78
2022/07/05 11:17:39;;;;;;;2.28;0.60;;;25.50;93.30;;;;;;4840702;29;20024;-79
2022/07/05 11:20:09;;;;;;;2.65;0.60;;;25.50;92.50;;;;;;4840884;29;20528;-79
2022/07/05 11:22:36;;;;;;;1.92;0.82;;;25.50;93.10;;;;;;4840794;29;20377;-79
2022/07/05 11:25:04;;;;;;;2.13;0.68;;;25.60;93.40;;;;;;4840661;29;20109;-79
2022/07/05 11:27:32;;;;;;;3.05;0.65;;;25.70;93.60;;;;;;4840882;29;20026;-79
2022/07/05 11:29:58;;;;;;;4.15;0.88;;;25.80;92.80;;;;;;4840760;29;20041;-79
2022/07/05 11:32:43;;;;;;;6.47;0.70;;;26.10;93.00;;;;;;4840471;29;20105;-79
2022/07/05 11:35:16;;;;;;;2.78;0.65;;;26.30;93.20;;;;;;4840560;29;20049;-78
2022/07/05 11:38:05;;;;;;;1.90;0.55;;;26.20;91.70;;;;;;4840366;29;20065;-79
2022/07/05 11:40:35;;;;;;;2.47;0.70;;;26.20;93.00;;;;;;4840377;29;20475;-79
2022/07/05 11:43:02;;;;;;;4.57;0.75;;;26.30;90.40;;;;;;4840388;29;20037;-79
2022/07/05 11:45:29;;;;;;;1.83;0.80;;;26.40;89.30;;;;;;4840340;29;20396;-79
2022/07/05 11:47:57;;;;;;;3.10;0.60;;;26.50;91.10;;;;;;4840244;29;20095;-79
2022/07/05 11:50:31;;;;;;;3.20;0.50;;;26.60;90.40;;;;;;4839058;29;20038;-79
2022/07/05 11:52:58;;;;;;;2.63;0.70;;;26.80;90.00;;;;;;4839861;29;20038;-79
2022/07/05 11:55:27;;;;;;;7.30;0.63;;;26.90;88.70;;;;;;4827973;29;20029;-79
2022/07/05 11:57:53;;;;;;;2.83;0.60;;;27.00;87.70;;;;;;4840145;29;20523;-79
2022/07/05 12:00:53;;;;;;;2.15;0.63;;;27.10;88.00;;;;;;4839869;29;20370;-79
2022/07/05 12:03:19;;;;;;;1.23;0.40;;;27.00;84.80;;;;;;4839406;29;20060;-79
2022/07/05 12:05:44;;;;;;;5.13;0.55;;;27.00;85.10;;;;;;4840137;29;20034;-79
2022/07/05 12:08:10;;;;;;;2.80;0.47;;;27.00;87.30;;;;;;4839982;29;20065;-79
2022/07/05 12:13:21;;;;;;;3.95;0.80;;;27.60;90.50;;;;;;4839920;29;20046;-79
2022/07/05 12:15:47;;;;;;;1.58;0.50;;;27.80;88.80;;;;;;4839799;29;20108;-79
2022/07/05 12:18:14;;;;;;;3.08;0.50;;;27.90;86.50;;;;;;4839777;29;20109;-79
2022/07/05 12:20:40;;;;;;;3.42;0.70;;;27.80;90.10;;;;;;4839729;29;20416;-79
2022/07/05 12:23:07;;;;;;;4.28;0.95;;;27.70;87.90;;;;;;4839696;29;20063;-79
2022/07/05 12:25:33;;;;;;;5.07;0.90;;;27.50;87.50;;;;;;4839519;29;20090;-79
2022/07/05 12:28:03;;;;;;;6.10;0.90;;;27.60;90.70;;;;;;4839731;29;20419;-79
2022/07/05 12:30:30;;;;;;;2.42;0.70;;;27.40;91.30;;;;;;4838236;29;20038;-79
2022/07/05 12:33:09;;;;;;;2.45;0.55;;;27.20;90.60;;;;;;4839754;29;20034;-79
2022/07/05 12:35:43;;;;;;;5.13;0.75;;;27.10;91.20;;;;;;4839547;29;20029;-79
2022/07/05 12:38:09;;;;;;;4.32;0.60;;;27.20;91.50;;;;;;4839765;29;20387;-79
2022/07/05 12:40:37;;;;;;;5.68;0.60;;;27.50;90.80;;;;;;4839424;29;20286;-79
2022/07/05 12:43:05;;;;;;;5.05;0.73;;;27.50;91.10;;;;;;4839533;29;20023;-79
2022/07/05 12:45:32;;;;;;;4.55;0.60;;;27.60;90.30;;;;;;4839250;29;20113;-79
2022/07/05 12:48:00;;;;;;;3.35;0.63;;;27.70;90.00;;;;;;4839297;29;20022;-79
2022/07/05 12:50:44;;;;;;;3.30;0.95;;;27.90;90.40;;;;;;4839336;29;20071;-79
2022/07/05 12:58:54;;;;;;;7.07;0.98;;;28.60;89.90;;;;;;4839475;29;20682;-79
2022/07/05 13:01:28;;;;;;;2.10;0.80;;;28.20;89.90;;;;;;4839063;29;20491;-79
2022/07/05 13:04:02;;;;;;;2.42;0.70;;;28.40;90.40;;;;;;4839208;29;20643;-79
2022/07/05 13:07:03;;;;;;;1.83;0.50;;;28.70;89.10;;;;;;4839331;29;20026;-79